Time;durP1;ratioP1;P1;durP2;ratioP2;P2;SDS_P1;SDS_P2;PMS_P1;PMS_P2;Temp;Humidity;BMP_temperature;BMP_pressure;BME280_temperature;BME280_humidity;BME280_pressure;Samples;Min_cycle;Max_cycle;Signal;HPM_P1;HPM_P2
2022/04/27 00:01:25;;;;;;;10.80;8.05;;;12.40;99.90;;;;;;4943102;28;20023;-80
2022/04/27 00:03:55;;;;;;;13.38;9.45;;;12.40;99.90;;;;;;4938250;29;20394;-80
2022/04/27 00:06:21;;;;;;;14.48;10.35;;;12.40;99.90;;;;;;4922897;29;20032;-81
2022/04/27 00:08:46;;;;;;;10.77;8.70;;;12.40;99.90;;;;;;4942110;28;20031;-81
2022/04/27 00:11:21;;;;;;;7.53;6.82;;;12.40;99.90;;;;;;4941995;28;20113;-81
2022/04/27 00:13:47;;;;;;;8.40;5.78;;;12.50;99.90;;;;;;4937691;29;20062;-79
2022/04/27 00:16:13;;;;;;;7.82;5.60;;;12.50;99.90;;;;;;4938601;28;20118;-80
2022/04/27 00:18:40;;;;;;;9.02;5.68;;;12.50;99.90;;;;;;4924861;29;20127;-79
2022/04/27 00:21:06;;;;;;;5.80;5.22;;;12.50;99.90;;;;;;4937609;28;20054;-80
2022/04/27 00:23:33;;;;;;;9.00;5.72;;;12.50;99.90;;;;;;4946862;29;20038;-79
2022/04/27 00:25:59;;;;;;;7.15;5.95;;;12.60;99.90;;;;;;4943868;28;20454;-80
2022/04/27 00:28:24;;;;;;;7.57;6.43;;;12.60;99.90;;;;;;4943693;28;20024;-80
2022/04/27 00:30:51;;;;;;;9.52;7.03;;;12.60;99.90;;;;;;4938225;28;20019;-81
2022/04/27 00:33:16;;;;;;;10.07;6.90;;;12.50;99.90;;;;;;4925307;29;20039;-80
2022/04/27 00:35:43;;;;;;;6.57;5.97;;;12.40;99.90;;;;;;4927791;28;20034;-80
2022/04/27 00:38:09;;;;;;;8.52;6.35;;;12.40;99.90;;;;;;4927766;29;20093;-80
2022/04/27 00:40:34;;;;;;;7.05;6.35;;;12.30;99.90;;;;;;4928174;28;20031;-80
2022/04/27 00:43:00;;;;;;;8.98;6.70;;;12.40;99.90;;;;;;4922867;29;20040;-81
2022/04/27 00:45:26;;;;;;;9.52;6.25;;;12.50;99.90;;;;;;4920324;28;20058;-80
2022/04/27 00:47:51;;;;;;;6.55;5.97;;;12.50;99.90;;;;;;4938857;28;20035;-80
2022/04/27 00:50:17;;;;;;;8.75;6.80;;;12.60;99.90;;;;;;4929382;29;20035;-80
2022/04/27 00:52:43;;;;;;;7.20;6.45;;;12.60;99.90;;;;;;4921496;29;20091;-80
2022/04/27 00:55:10;;;;;;;7.55;5.85;;;12.70;99.90;;;;;;4918891;29;20036;-80
2022/04/27 00:57:39;;;;;;;9.60;6.10;;;12.70;99.90;;;;;;4944278;28;20023;-80
2022/04/27 01:00:07;;;;;;;7.70;6.20;;;12.70;99.90;;;;;;4946266;28;20031;-80
2022/04/27 01:02:34;;;;;;;6.53;4.95;;;12.70;99.90;;;;;;4945591;28;20023;-80
2022/04/27 01:05:04;;;;;;;6.07;5.43;;;12.70;99.90;;;;;;4929832;29;20037;-80
2022/04/27 01:07:30;;;;;;;8.95;5.60;;;12.70;99.90;;;;;;4938441;28;20488;-83
2022/04/27 01:09:56;;;;;;;6.95;5.80;;;12.70;99.90;;;;;;4945663;29;20024;-83
2022/04/27 01:12:22;;;;;;;6.47;5.50;;;12.70;99.90;;;;;;4926306;29;20047;-84
2022/04/27 01:14:48;;;;;;;7.00;5.68;;;12.70;99.90;;;;;;4919816;29;20486;-83
2022/04/27 01:17:14;;;;;;;12.98;6.22;;;12.70;99.90;;;;;;4921207;29;20056;-83
2022/04/27 01:19:40;;;;;;;5.75;5.10;;;12.70;99.90;;;;;;4919405;29;20035;-83
2022/04/27 01:22:06;;;;;;;6.03;5.05;;;12.70;99.90;;;;;;4938470;28;20042;-83
2022/04/27 01:24:32;;;;;;;6.20;5.25;;;12.70;99.90;;;;;;4921683;29;20031;-82
2022/04/27 01:26:58;;;;;;;9.05;4.65;;;12.60;99.90;;;;;;4944384;28;20106;-83
2022/04/27 01:29:24;;;;;;;7.15;5.28;;;12.70;99.90;;;;;;4945604;28;20034;-83
2022/04/27 01:31:51;;;;;;;6.22;4.97;;;12.70;99.90;;;;;;4927187;29;20028;-83
2022/04/27 01:34:17;;;;;;;9.30;4.80;;;12.60;99.90;;;;;;4947013;28;20398;-82
2022/04/27 01:36:42;;;;;;;4.72;4.28;;;12.60;99.90;;;;;;4942776;28;20035;-83
2022/04/27 01:39:08;;;;;;;9.35;5.90;;;12.60;99.90;;;;;;4940522;28;20055;-83
2022/04/27 01:41:36;;;;;;;7.30;5.30;;;12.60;99.90;;;;;;4941345;28;20031;-83
2022/04/27 01:44:02;;;;;;;7.05;4.90;;;12.60;99.90;;;;;;4951610;28;20114;-83
2022/04/27 01:46:31;;;;;;;6.00;5.03;;;12.60;99.90;;;;;;4926549;29;20023;-83
2022/04/27 01:49:00;;;;;;;5.90;5.03;;;12.60;99.90;;;;;;4923741;29;20122;-84
2022/04/27 01:54:16;;;;;;;6.53;5.20;;;12.60;99.90;;;;;;4949657;29;20459;-85
2022/04/27 01:56:47;;;;;;;7.20;4.45;;;12.60;99.90;;;;;;4942797;28;20062;-84
2022/04/27 01:59:13;;;;;;;4.72;4.10;;;12.70;99.90;;;;;;4935483;29;20323;-84
2022/04/27 02:01:40;;;;;;;3.60;2.95;;;12.70;99.90;;;;;;4942129;28;20104;-85
2022/04/27 02:04:05;;;;;;;3.17;2.10;;;12.60;99.90;;;;;;4938992;28;20094;-85
2022/04/27 02:06:35;;;;;;;4.97;1.70;;;12.50;99.90;;;;;;4924521;29;20031;-85
2022/04/27 02:09:02;;;;;;;2.03;1.48;;;12.40;99.90;;;;;;4946567;29;20028;-85
2022/04/27 02:11:28;;;;;;;1.38;1.10;;;12.40;99.90;;;;;;4923287;29;20416;-85
2022/04/27 02:13:55;;;;;;;0.93;0.93;;;12.40;99.90;;;;;;4922566;29;20035;-86
2022/04/27 02:16:27;;;;;;;1.08;0.73;;;12.30;99.90;;;;;;4940786;28;20028;-83
2022/04/27 02:18:54;;;;;;;;;;;12.30;99.90;;;;;;4946010;28;20047;-83
2022/04/27 02:21:20;;;;;;;0.75;0.70;;;12.20;99.90;;;;;;4942581;28;20425;-83
2022/04/27 02:23:46;;;;;;;0.65;0.65;;;12.20;99.90;;;;;;4940122;28;20034;-83
2022/04/27 02:26:12;;;;;;;0.77;0.77;;;12.20;99.90;;;;;;4940112;28;20030;-84
2022/04/27 02:28:37;;;;;;;0.80;0.65;;;12.20;99.90;;;;;;4938004;29;20038;-84
2022/04/27 02:31:03;;;;;;;1.35;0.80;;;12.20;99.90;;;;;;4940446;28;20027;-84
2022/04/27 02:33:30;;;;;;;2.70;0.88;;;12.20;99.90;;;;;;4944377;28;20511;-84
2022/04/27 02:35:56;;;;;;;1.25;0.50;;;12.30;99.90;;;;;;4945597;28;20031;-84
2022/04/27 02:38:22;;;;;;;0.60;0.60;;;12.30;99.90;;;;;;4939230;29;20042;-83
2022/04/27 02:40:48;;;;;;;1.05;0.50;;;12.30;99.90;;;;;;4939921;28;20501;-84
2022/04/27 02:43:14;;;;;;;1.00;0.70;;;12.30;99.90;;;;;;4940239;29;20037;-84
2022/04/27 02:45:41;;;;;;;0.50;0.50;;;12.30;99.90;;;;;;4939727;28;20126;-84
2022/04/27 02:48:07;;;;;;;0.65;0.55;;;12.30;99.90;;;;;;4946952;28;20499;-83
2022/04/27 02:53:18;;;;;;;1.58;1.00;;;12.30;99.90;;;;;;4948513;28;20023;-84
2022/04/27 02:55:45;;;;;;;0.85;0.60;;;12.30;99.90;;;;;;4946813;28;20607;-84
2022/04/27 02:58:10;;;;;;;0.50;0.50;;;12.20;99.90;;;;;;4942074;29;20047;-84
2022/04/27 03:00:36;;;;;;;1.38;0.80;;;12.20;99.90;;;;;;4922082;28;20035;-84
2022/04/27 03:03:03;;;;;;;3.80;0.70;;;12.20;99.90;;;;;;4924977;29;20118;-86
2022/04/27 03:05:28;;;;;;;0.60;0.60;;;12.20;99.90;;;;;;4930555;29;20379;-86
2022/04/27 03:07:54;;;;;;;1.05;0.55;;;12.10;99.90;;;;;;4940486;28;20083;-86
2022/04/27 03:10:20;;;;;;;0.77;0.60;;;12.10;99.90;;;;;;4920825;29;20120;-85
2022/04/27 03:12:46;;;;;;;1.55;0.60;;;12.10;99.90;;;;;;4946706;28;20482;-85
2022/04/27 03:15:12;;;;;;;2.80;0.60;;;12.10;99.90;;;;;;4936724;28;20032;-84
2022/04/27 03:17:37;;;;;;;0.80;0.70;;;12.00;99.90;;;;;;4922570;29;20028;-84
2022/04/27 03:20:04;;;;;;;0.63;0.57;;;12.10;99.90;;;;;;4939576;29;20398;-85
2022/04/27 03:22:30;;;;;;;1.38;0.50;;;12.10;99.90;;;;;;4939534;28;20027;-85
2022/04/27 03:24:56;;;;;;;1.25;0.52;;;12.10;99.90;;;;;;4938988;29;20031;-85
2022/04/27 03:27:30;;;;;;;0.50;0.50;;;12.20;99.90;;;;;;4940857;28;20034;-84
2022/04/27 03:30:08;;;;;;;2.40;0.60;;;12.20;99.90;;;;;;4923111;29;20066;-83
2022/04/27 03:32:37;;;;;;;0.50;0.50;;;12.20;99.90;;;;;;4940871;28;20051;-84
2022/04/27 03:35:08;;;;;;;0.60;0.60;;;12.20;99.90;;;;;;4932091;29;20115;-83
2022/04/27 03:37:41;;;;;;;0.93;0.80;;;12.30;99.90;;;;;;4922639;29;20028;-84
2022/04/27 03:40:11;;;;;;;1.63;0.77;;;12.30;99.90;;;;;;4944582;28;20023;-83
2022/04/27 03:42:37;;;;;;;0.68;0.68;;;12.30;99.90;;;;;;4940003;28;20035;-85
2022/04/27 03:45:03;;;;;;;1.45;0.60;;;12.30;99.90;;;;;;4919958;29;20083;-84
2022/04/27 03:47:35;;;;;;;0.95;0.75;;;12.30;99.90;;;;;;4920310;29;20028;-83
2022/04/27 03:50:04;;;;;;;0.70;0.68;;;12.30;99.90;;;;;;4940625;29;20023;-83
2022/04/27 03:52:30;;;;;;;0.98;0.70;;;12.30;99.90;;;;;;4939189;28;20091;-84
2022/04/27 03:55:00;;;;;;;3.30;0.75;;;12.40;99.90;;;;;;4921353;28;20382;-85
2022/04/27 03:57:27;;;;;;;0.50;0.50;;;12.40;99.90;;;;;;4924770;29;20490;-85
2022/04/27 03:59:55;;;;;;;0.43;0.43;;;12.50;99.90;;;;;;4919166;29;20498;-84
2022/04/27 04:02:24;;;;;;;4.57;0.80;;;12.50;99.90;;;;;;4941501;28;20043;-85
2022/04/27 04:04:50;;;;;;;2.28;0.80;;;12.50;99.90;;;;;;4921055;29;20506;-83
2022/04/27 04:07:15;;;;;;;0.50;0.50;;;12.50;99.90;;;;;;4924331;29;20028;-84
2022/04/27 04:09:41;;;;;;;1.13;0.43;;;12.50;99.90;;;;;;4945714;29;20027;-85
2022/04/27 04:12:08;;;;;;;0.77;0.70;;;12.60;99.90;;;;;;4926407;29;20142;-85
2022/04/27 04:14:34;;;;;;;0.50;0.50;;;12.60;99.90;;;;;;4948843;28;20497;-84
2022/04/27 04:17:00;;;;;;;0.52;0.50;;;12.70;99.90;;;;;;4940466;28;20402;-84
2022/04/27 04:19:26;;;;;;;0.50;0.50;;;12.70;99.90;;;;;;4922459;29;20046;-84
2022/04/27 04:21:51;;;;;;;0.50;0.50;;;12.80;99.90;;;;;;4940606;28;20027;-84
2022/04/27 04:24:17;;;;;;;0.80;0.80;;;12.70;99.90;;;;;;4918650;29;20028;-84
2022/04/27 04:29:28;;;;;;;1.63;0.40;;;12.70;99.90;;;;;;4939899;29;20605;-84
2022/04/27 04:31:53;;;;;;;2.53;0.60;;;12.60;99.90;;;;;;4942450;28;20035;-84
2022/04/27 04:34:25;;;;;;;1.23;0.50;;;12.60;99.90;;;;;;4923354;28;20032;-82
2022/04/27 04:37:06;;;;;;;0.65;0.65;;;12.50;99.90;;;;;;4940524;28;20035;-82
2022/04/27 04:39:31;;;;;;;0.73;0.40;;;12.50;99.90;;;;;;4935964;29;20082;-83
2022/04/27 04:41:57;;;;;;;0.90;0.50;;;12.50;99.90;;;;;;4939661;28;20450;-83
2022/04/27 04:44:23;;;;;;;0.43;0.43;;;12.50;99.90;;;;;;4936180;29;20495;-83
2022/04/27 04:46:51;;;;;;;1.00;0.50;;;12.50;99.90;;;;;;4940509;28;20020;-83
2022/04/27 04:49:17;;;;;;;1.23;0.65;;;12.50;99.90;;;;;;4935287;29;20043;-83
2022/04/27 04:51:42;;;;;;;0.60;0.55;;;12.50;99.90;;;;;;4923022;29;20040;-83
2022/04/27 04:54:08;;;;;;;0.93;0.50;;;12.50;99.90;;;;;;4938138;28;20538;-83
2022/04/27 04:56:33;;;;;;;0.80;0.75;;;12.50;99.90;;;;;;4939311;28;20497;-83
2022/04/27 04:59:02;;;;;;;2.40;0.55;;;12.50;99.90;;;;;;4922112;29;20043;-83
2022/04/27 05:01:28;;;;;;;0.50;0.50;;;12.50;99.90;;;;;;4944532;28;20027;-84
2022/04/27 05:03:54;;;;;;;2.33;0.63;;;12.50;99.90;;;;;;4941106;28;20087;-84
2022/04/27 05:06:19;;;;;;;1.50;0.90;;;12.50;99.90;;;;;;4942355;28;20439;-84
2022/04/27 05:08:45;;;;;;;0.50;0.50;;;12.50;99.90;;;;;;4928617;29;20386;-85
2022/04/27 05:11:11;;;;;;;2.38;0.60;;;12.50;99.90;;;;;;4940687;28;20455;-84
2022/04/27 05:13:38;;;;;;;0.60;0.60;;;12.50;99.90;;;;;;4941457;28;20031;-83
2022/04/27 05:16:04;;;;;;;0.60;0.50;;;12.50;99.90;;;;;;4942689;28;20526;-84
2022/04/27 05:18:30;;;;;;;0.68;0.57;;;12.60;99.90;;;;;;4941452;29;20035;-84
2022/04/27 05:20:56;;;;;;;3.80;0.70;;;12.60;99.90;;;;;;4938248;28;20193;-84
2022/04/27 05:23:22;;;;;;;0.90;0.68;;;12.70;99.90;;;;;;4922329;29;20032;-84
2022/04/27 05:25:47;;;;;;;0.50;0.50;;;12.70;99.90;;;;;;4940842;28;20566;-84
2022/04/27 05:28:13;;;;;;;0.70;0.70;;;12.70;99.90;;;;;;4950327;28;20032;-84
2022/04/27 05:33:23;;;;;;;0.93;0.50;;;12.70;99.90;;;;;;4944036;29;20122;-84
2022/04/27 05:35:49;;;;;;;0.50;0.50;;;12.70;99.90;;;;;;4940624;28;20114;-84
2022/04/27 05:38:15;;;;;;;2.90;0.50;;;12.70;99.90;;;;;;4941443;28;20058;-84
2022/04/27 05:40:43;;;;;;;1.10;0.80;;;12.80;99.90;;;;;;4940857;28;20467;-84
2022/04/27 05:43:10;;;;;;;2.03;0.70;;;12.80;99.90;;;;;;4941356;29;20027;-84
2022/04/27 05:45:36;;;;;;;0.88;0.50;;;12.80;99.90;;;;;;4939071;28;20031;-83
2022/04/27 05:48:03;;;;;;;0.73;0.60;;;12.80;99.90;;;;;;4942116;29;20128;-82
2022/04/27 05:50:29;;;;;;;0.73;0.70;;;12.80;99.90;;;;;;4941636;28;20031;-83
2022/04/27 05:52:56;;;;;;;1.05;0.55;;;12.90;99.90;;;;;;4941601;28;20367;-84
2022/04/27 05:55:23;;;;;;;0.75;0.50;;;12.80;99.90;;;;;;4921744;29;20555;-84
2022/04/27 05:57:49;;;;;;;2.17;0.68;;;12.90;99.90;;;;;;4942700;28;20051;-81
2022/04/27 06:00:15;;;;;;;2.55;0.70;;;12.90;99.90;;;;;;4926562;29;20038;-83
2022/04/27 06:02:44;;;;;;;0.40;0.35;;;13.00;99.90;;;;;;4942830;28;20062;-83
2022/04/27 06:05:10;;;;;;;0.70;0.60;;;13.00;99.90;;;;;;4948974;28;20024;-84
2022/04/27 06:07:37;;;;;;;0.55;0.55;;;13.00;99.90;;;;;;4940948;28;20067;-84
2022/04/27 06:10:10;;;;;;;0.60;0.38;;;13.10;99.90;;;;;;4943368;28;20077;-84
2022/04/27 06:12:44;;;;;;;0.75;0.60;;;13.10;99.90;;;;;;4930943;28;20387;-83
2022/04/27 06:15:16;;;;;;;0.77;0.73;;;13.10;99.90;;;;;;4948891;28;20036;-83
2022/04/27 06:17:45;;;;;;;0.77;0.60;;;13.20;99.90;;;;;;4941753;28;20032;-81
2022/04/27 06:20:13;;;;;;;0.55;0.55;;;13.20;99.90;;;;;;4943492;28;20499;-82
2022/04/27 06:22:39;;;;;;;0.80;0.60;;;13.20;99.90;;;;;;4953338;28;20359;-81
2022/04/27 06:25:05;;;;;;;3.20;0.63;;;13.10;99.90;;;;;;4948172;28;20062;-81
2022/04/27 06:27:31;;;;;;;0.73;0.73;;;13.20;99.90;;;;;;4944709;28;20027;-82
2022/04/27 06:29:57;;;;;;;1.15;0.52;;;13.10;99.90;;;;;;4946372;29;20041;-82
2022/04/27 06:32:23;;;;;;;0.70;0.68;;;13.10;99.90;;;;;;4941551;28;20487;-82
2022/04/27 06:34:51;;;;;;;0.88;0.65;;;13.00;99.90;;;;;;4939599;29;20031;-82
2022/04/27 06:37:20;;;;;;;0.60;0.60;;;12.90;99.90;;;;;;4940829;28;20038;-82
2022/04/27 06:39:46;;;;;;;0.95;0.75;;;12.80;99.90;;;;;;4947353;28;20036;-81
2022/04/27 06:42:12;;;;;;;1.30;0.70;;;12.70;99.90;;;;;;4943159;28;20127;-83
2022/04/27 06:44:37;;;;;;;1.75;0.63;;;12.60;99.90;;;;;;4933424;29;20083;-83
2022/04/27 06:47:03;;;;;;;0.93;0.70;;;12.60;99.90;;;;;;4924514;29;20042;-82
2022/04/27 06:49:29;;;;;;;1.20;0.73;;;12.50;99.90;;;;;;4918622;29;20047;-84
2022/04/27 06:51:55;;;;;;;1.00;0.70;;;12.40;99.90;;;;;;4927161;29;20028;-84
2022/04/27 06:54:21;;;;;;;0.70;0.70;;;12.40;99.90;;;;;;4951553;28;20019;-84
2022/04/27 06:56:47;;;;;;;3.97;0.73;;;12.50;99.90;;;;;;4924223;29;20498;-84
2022/04/27 06:59:12;;;;;;;0.52;0.52;;;12.60;99.90;;;;;;4938617;29;20041;-85
2022/04/27 07:01:38;;;;;;;0.70;0.57;;;12.90;99.90;;;;;;4944371;28;20062;-83
2022/04/27 07:04:09;;;;;;;11.48;0.95;;;13.00;99.90;;;;;;4940904;28;20028;-84
2022/04/27 07:06:39;;;;;;;4.13;0.70;;;13.10;99.90;;;;;;4952322;28;20114;-84
2022/04/27 07:09:07;;;;;;;0.47;0.47;;;13.20;99.90;;;;;;4925442;29;20070;-83
2022/04/27 07:11:34;;;;;;;0.63;0.60;;;13.40;99.90;;;;;;4945981;28;20099;-83
2022/04/27 07:14:00;;;;;;;0.50;0.50;;;13.50;99.90;;;;;;4948491;28;20511;-82
2022/04/27 07:16:26;;;;;;;1.95;0.43;;;13.60;99.90;;;;;;4928540;29;20032;-82
2022/04/27 07:18:53;;;;;;;4.07;0.60;;;13.70;99.90;;;;;;4936787;29;20043;-82
2022/04/27 07:21:19;;;;;;;0.70;0.57;;;13.80;99.90;;;;;;4937382;28;20027;-82
2022/04/27 07:23:45;;;;;;;1.33;0.88;;;14.00;99.90;;;;;;4947653;28;20053;-82
2022/04/27 07:26:11;;;;;;;6.22;0.40;;;14.00;99.90;;;;;;4924903;29;20686;-82
2022/04/27 07:28:38;;;;;;;0.50;0.50;;;14.10;99.90;;;;;;4920246;29;20031;-82
2022/04/27 07:31:04;;;;;;;1.38;0.50;;;14.10;99.90;;;;;;4920773;29;20031;-82
2022/04/27 07:33:30;;;;;;;3.65;0.70;;;14.20;99.90;;;;;;4932556;29;20428;-82
2022/04/27 07:35:56;;;;;;;2.30;0.60;;;14.30;99.90;;;;;;4939070;28;20161;-81
2022/04/27 07:38:21;;;;;;;0.52;0.52;;;14.50;99.90;;;;;;4938837;28;20087;-82
2022/04/27 07:40:47;;;;;;;4.45;0.52;;;14.50;99.90;;;;;;4937951;28;20036;-83
2022/04/27 07:43:14;;;;;;;5.18;0.47;;;14.60;99.90;;;;;;4921866;29;20042;-83
2022/04/27 07:45:43;;;;;;;2.53;0.60;;;14.70;99.90;;;;;;4938768;28;20026;-83
2022/04/27 07:48:10;;;;;;;1.83;0.65;;;14.80;99.90;;;;;;4922732;29;20035;-83
2022/04/27 07:50:36;;;;;;;12.70;0.90;;;14.90;99.90;;;;;;4938108;28;20114;-83
2022/04/27 07:53:02;;;;;;;2.88;0.95;;;15.10;99.90;;;;;;4926738;29;20063;-83
2022/04/27 07:55:29;;;;;;;1.50;0.50;;;15.30;99.90;;;;;;4947069;29;20058;-83
2022/04/27 07:57:55;;;;;;;2.22;0.43;;;15.60;99.90;;;;;;4921845;29;20033;-86
2022/04/27 08:00:21;;;;;;;2.15;0.30;;;16.00;99.90;;;;;;4920483;29;20044;-83
2022/04/27 08:02:47;;;;;;;1.50;0.50;;;16.40;99.90;;;;;;4941640;28;20615;-82
2022/04/27 08:05:16;;;;;;;0.45;0.35;;;16.80;99.90;;;;;;4940901;29;20119;-85
2022/04/27 08:07:46;;;;;;;0.60;0.60;;;16.90;99.90;;;;;;4937684;28;20032;-83
2022/04/27 08:10:21;;;;;;;0.93;0.50;;;16.80;99.90;;;;;;4937340;29;20177;-83
2022/04/27 08:12:49;;;;;;;0.38;0.38;;;16.80;99.90;;;;;;4942344;28;20039;-83
2022/04/27 08:15:16;;;;;;;2.30;0.40;;;16.70;99.90;;;;;;4945177;28;20056;-83
2022/04/27 08:18:03;;;;;;;0.40;0.40;;;16.60;99.90;;;;;;4943377;28;20106;-93
2022/04/27 08:23:29;;;;;;;0.57;0.40;;;16.20;99.90;;;;;;4938703;29;20027;-81
2022/04/27 08:25:57;;;;;;;0.98;0.38;;;16.10;99.90;;;;;;4923961;28;20036;-82
2022/04/27 08:28:23;;;;;;;0.40;0.40;;;16.10;99.90;;;;;;4926819;29;20544;-81
2022/04/27 08:30:50;;;;;;;0.32;0.32;;;16.10;99.90;;;;;;4944682;28;20031;-82
2022/04/27 08:33:18;;;;;;;0.40;0.40;;;16.10;99.90;;;;;;4942443;28;20106;-82
2022/04/27 08:35:44;;;;;;;1.75;0.50;;;16.30;99.90;;;;;;4941761;28;20026;-81
2022/04/27 08:38:10;;;;;;;1.65;0.60;;;16.50;99.90;;;;;;4947663;28;20037;-82
2022/04/27 08:40:40;;;;;;;6.82;0.80;;;16.80;99.90;;;;;;4949187;28;20502;-81
2022/04/27 08:43:06;;;;;;;5.60;0.45;;;17.00;99.90;;;;;;4949554;28;20091;-82
2022/04/27 08:45:33;;;;;;;3.80;0.75;;;17.00;99.90;;;;;;4948005;28;20032;-81
2022/04/27 08:47:59;;;;;;;2.33;0.93;;;17.10;99.90;;;;;;4944177;28;20034;-81
2022/04/27 08:50:26;;;;;;;2.28;0.63;;;17.00;99.90;;;;;;4938158;29;20051;-81
2022/04/27 08:52:53;;;;;;;2.85;0.50;;;16.90;99.90;;;;;;4943015;28;20024;-83
2022/04/27 08:55:19;;;;;;;0.40;0.40;;;16.70;99.90;;;;;;4939832;28;20039;-83
2022/04/27 08:57:46;;;;;;;5.55;0.77;;;16.60;99.90;;;;;;4942447;28;20023;-83
2022/04/27 09:00:14;;;;;;;1.80;0.90;;;16.50;99.90;;;;;;4951331;28;20114;-83
2022/04/27 09:02:40;;;;;;;3.15;0.70;;;16.30;99.90;;;;;;4949980;28;20023;-82
2022/04/27 09:05:17;;;;;;;1.08;0.50;;;16.30;99.90;;;;;;4917254;29;20091;-81
2022/04/27 09:07:56;;;;;;;4.03;0.77;;;16.40;99.90;;;;;;4942681;28;20522;-82
2022/04/27 09:10:24;;;;;;;4.97;0.55;;;16.50;99.90;;;;;;4940222;29;20032;-82
2022/04/27 09:12:50;;;;;;;2.28;0.65;;;16.60;99.90;;;;;;4941169;28;20106;-83
2022/04/27 09:15:26;;;;;;;6.97;0.80;;;16.60;99.90;;;;;;4922177;29;20039;-83
2022/04/27 09:20:48;;;;;;;5.53;0.65;;;16.70;99.90;;;;;;4941434;28;20049;-83
2022/04/27 09:23:23;;;;;;;5.85;0.90;;;16.80;99.90;;;;;;4949962;28;20451;-83
2022/04/27 09:25:55;;;;;;;2.35;0.70;;;16.90;99.90;;;;;;4941754;28;20031;-83
2022/04/27 09:28:31;;;;;;;2.92;0.75;;;17.00;99.90;;;;;;4948546;28;20034;-83
2022/04/27 09:30:59;;;;;;;0.50;0.50;;;17.10;99.90;;;;;;4945143;28;20027;-83
2022/04/27 09:33:38;;;;;;;2.25;0.60;;;16.90;99.90;;;;;;4943804;28;20055;-83
2022/04/27 09:36:23;;;;;;;0.30;0.30;;;17.00;99.90;;;;;;4942415;28;20028;-83
2022/04/27 09:38:49;;;;;;;7.60;0.70;;;17.30;99.90;;;;;;4929778;28;20035;-83
2022/04/27 09:41:15;;;;;;;0.30;0.30;;;17.30;99.90;;;;;;4943787;28;20578;-83
2022/04/27 09:43:49;;;;;;;0.45;0.45;;;17.30;99.90;;;;;;4940023;28;20031;-82
2022/04/27 09:46:25;;;;;;;0.77;0.38;;;17.20;99.90;;;;;;4941952;28;20023;-82
2022/04/27 09:49:02;;;;;;;1.58;0.50;;;16.90;99.90;;;;;;4947674;28;20021;-81
2022/04/27 09:51:28;;;;;;;0.40;0.40;;;16.70;99.90;;;;;;4943023;28;20039;-81
2022/04/27 09:53:56;;;;;;;0.93;0.52;;;16.60;99.90;;;;;;4951163;28;20027;-81
2022/04/27 09:56:28;;;;;;;0.43;0.40;;;16.50;99.90;;;;;;4946200;28;20478;-82
2022/04/27 09:58:57;;;;;;;2.13;0.75;;;16.60;99.90;;;;;;4940242;29;20040;-82
2022/04/27 10:01:25;;;;;;;4.50;1.20;;;16.70;99.90;;;;;;4943297;28;20032;-81
2022/04/27 10:03:57;;;;;;;0.50;0.50;;;16.80;99.90;;;;;;4945725;28;20031;-82
2022/04/27 10:06:23;;;;;;;1.40;1.30;;;16.80;99.90;;;;;;4942652;28;20110;-80
2022/04/27 10:08:51;;;;;;;1.50;1.10;;;16.90;99.90;;;;;;4946916;28;20517;-80
2022/04/27 10:11:21;;;;;;;0.35;0.35;;;16.90;99.90;;;;;;4950943;28;20042;-83
2022/04/27 10:13:51;;;;;;;0.40;0.40;;;17.00;99.90;;;;;;4943379;28;20055;-85
2022/04/27 10:16:21;;;;;;;0.43;0.40;;;17.20;99.90;;;;;;4940238;28;20019;-91
2022/04/27 10:18:47;;;;;;;1.10;0.47;;;17.20;99.90;;;;;;4925519;29;20039;-87
2022/04/27 10:21:14;;;;;;;0.85;0.50;;;17.40;99.90;;;;;;4943595;28;20051;-81
2022/04/27 10:23:46;;;;;;;0.50;0.50;;;17.40;99.90;;;;;;4940501;28;20457;-88
2022/04/27 10:26:16;;;;;;;0.30;0.30;;;17.50;99.90;;;;;;4923489;29;20038;-79
2022/04/27 10:29:11;;;;;;;0.95;0.50;;;17.50;99.90;;;;;;4944320;28;20035;-81
2022/04/27 10:31:44;;;;;;;3.33;0.70;;;17.60;99.90;;;;;;4942696;28;20039;-85
2022/04/27 10:34:25;;;;;;;;;;;17.90;99.90;;;;;;4938256;28;20050;-83
2022/04/27 10:36:52;;;;;;;0.95;0.30;;;18.10;99.90;;;;;;4946079;28;19934;-91
2022/04/27 10:39:23;;;;;;;6.53;0.70;;;18.30;99.90;;;;;;4939076;28;20036;-94
2022/04/27 10:42:16;;;;;;;0.60;0.40;;;18.50;99.90;;;;;;4931122;28;20028;-86
2022/04/27 10:44:48;;;;;;;;;;;18.60;99.90;;;;;;4948283;28;20055;-91
2022/04/27 10:47:30;;;;;;;2.05;0.40;;;18.60;99.90;;;;;;4943823;28;19913;-90
2022/04/27 10:50:11;;;;;;;2.05;0.70;;;18.70;99.90;;;;;;4952377;28;20023;-90
2022/04/27 10:52:44;;;;;;;0.30;0.30;;;18.70;99.90;;;;;;4945618;28;20394;-91
2022/04/27 10:55:34;;;;;;;0.80;0.40;;;18.80;99.90;;;;;;4924982;29;20031;-90
2022/04/27 10:58:22;;;;;;;0.45;0.40;;;18.80;99.90;;;;;;4932276;29;20034;-90
2022/04/27 11:01:03;;;;;;;0.32;0.32;;;18.90;99.90;;;;;;4923554;28;20031;-87
2022/04/27 11:03:29;;;;;;;2.85;0.63;;;19.00;99.90;;;;;;4950762;29;20059;-87
2022/04/27 11:06:10;;;;;;;1.17;0.30;;;19.00;99.90;;;;;;4946713;28;20039;-86
2022/04/27 11:08:52;;;;;;;2.25;0.88;;;19.10;99.90;;;;;;4925877;28;20624;-89
2022/04/27 11:11:22;;;;;;;5.40;1.40;;;19.20;99.90;;;;;;4948716;28;20046;-89
2022/04/27 11:13:48;;;;;;;4.68;0.65;;;19.30;99.90;;;;;;4939634;29;20781;-90
2022/04/27 11:16:15;;;;;;;3.35;1.17;;;19.40;99.90;;;;;;4940079;28;20048;-90
2022/04/27 11:18:59;;;;;;;1.02;0.50;;;19.50;99.90;;;;;;4940065;28;20042;-90
2022/04/27 11:21:30;;;;;;;1.80;0.50;;;19.70;99.90;;;;;;4924515;29;20047;-91
2022/04/27 11:24:00;;;;;;;1.75;0.60;;;19.70;99.90;;;;;;4932889;29;20426;-90
2022/04/27 11:26:36;;;;;;;3.55;1.23;;;19.80;99.90;;;;;;4929773;29;20121;-87
2022/04/27 11:29:02;;;;;;;5.72;2.10;;;19.80;99.90;;;;;;4941241;28;20023;-91
2022/04/27 11:31:34;;;;;;;3.63;0.70;;;20.00;99.90;;;;;;4944149;28;20024;-88
2022/04/27 11:34:00;;;;;;;7.28;1.20;;;20.20;99.90;;;;;;4924553;29;20495;-91
2022/04/27 11:36:27;;;;;;;2.38;0.80;;;20.30;99.90;;;;;;4925258;29;20139;-91
2022/04/27 11:38:54;;;;;;;1.45;0.52;;;20.30;99.90;;;;;;4927048;29;20046;-90
2022/04/27 11:41:23;;;;;;;3.17;1.30;;;20.50;99.90;;;;;;4927386;29;20031;-90
2022/04/27 11:43:51;;;;;;;2.25;1.25;;;20.70;99.90;;;;;;4935749;29;20023;-89
2022/04/27 11:46:18;;;;;;;1.50;0.70;;;20.80;99.90;;;;;;4924211;29;20584;-88
2022/04/27 11:48:48;;;;;;;0.68;0.50;;;20.80;99.90;;;;;;4947992;28;20663;-89
2022/04/27 11:51:14;;;;;;;3.10;1.48;;;20.90;99.90;;;;;;4939704;28;20027;-89
2022/04/27 11:53:50;;;;;;;0.85;0.50;;;21.00;99.90;;;;;;4920481;29;20027;-81
2022/04/27 11:56:17;;;;;;;0.85;0.60;;;21.00;99.90;;;;;;4937681;28;20079;-84
2022/04/27 11:58:46;;;;;;;1.20;0.45;;;20.90;99.90;;;;;;4921822;29;20043;-83
2022/04/27 12:01:22;;;;;;;0.75;0.60;;;21.10;99.90;;;;;;4941241;28;20019;-85
2022/04/27 12:03:51;;;;;;;6.35;0.95;;;21.90;99.90;;;;;;4939964;29;20038;-83
2022/04/27 12:06:23;;;;;;;6.72;1.20;;;25.10;99.90;;;;;;4940221;28;20020;-80
2022/04/27 12:08:52;;;;;;;;;;;28.80;97.60;;;;;;4938364;29;20503;-86
2022/04/27 12:11:24;;;;;;;1.88;1.10;;;31.10;78.00;;;;;;4942067;28;19965;-84
2022/04/27 12:13:52;;;;;;;6.07;5.22;;;32.60;73.20;;;;;;4938251;29;20028;-84
2022/04/27 12:16:18;;;;;;;44.08;37.17;;;33.10;62.20;;;;;;4938799;28;20047;-81
2022/04/27 12:18:54;;;;;;;10.35;7.50;;;33.30;59.20;;;;;;4921153;29;20525;-82
2022/04/27 12:21:27;;;;;;;1.33;1.02;;;34.10;57.00;;;;;;4938700;28;20032;-84
2022/04/27 12:23:56;;;;;;;3.05;2.28;;;34.60;56.20;;;;;;4938196;29;20106;-84
2022/04/27 12:26:23;;;;;;;2.58;1.90;;;35.40;53.90;;;;;;4923792;29;20043;-82
2022/04/27 12:28:49;;;;;;;3.50;3.20;;;36.00;54.70;;;;;;4937821;28;20598;-84
2022/04/27 12:31:19;;;;;;;2.47;1.90;;;37.00;52.00;;;;;;4940062;28;20032;-85
2022/04/27 12:33:50;;;;;;;8.45;4.88;;;38.00;51.80;;;;;;4931290;29;20027;-81
2022/04/27 12:39:20;;;;;;;3.40;1.17;;;40.70;47.40;;;;;;4943894;28;20911;-83
2022/04/27 12:41:47;;;;;;;2.40;2.20;;;41.30;45.40;;;;;;4942685;28;20078;-83
2022/04/27 12:44:35;;;;;;;2.60;2.40;;;41.30;46.10;;;;;;4950524;28;20078;-84
2022/04/27 12:47:12;;;;;;;3.95;2.85;;;42.20;44.00;;;;;;4921265;29;20030;-84
2022/04/27 12:49:42;;;;;;;4.60;3.45;;;41.40;42.70;;;;;;4948740;28;20071;-83
2022/04/27 12:52:20;;;;;;;1.10;0.98;;;42.20;42.70;;;;;;4940108;28;20031;-85
2022/04/27 12:55:00;;;;;;;1.00;1.00;;;42.30;41.70;;;;;;4947625;29;20053;-83
2022/04/27 12:57:26;;;;;;;1.23;1.13;;;42.00;41.10;;;;;;4938387;28;20032;-82
2022/04/27 13:00:04;;;;;;;0.88;0.80;;;42.70;41.90;;;;;;4945290;28;20028;-84
2022/04/27 13:02:30;;;;;;;1.40;1.30;;;43.60;41.30;;;;;;4942124;28;20036;-84
2022/04/27 13:04:56;;;;;;;1.48;1.33;;;43.80;40.90;;;;;;4937944;28;20028;-83
2022/04/27 13:07:22;;;;;;;4.13;3.10;;;44.80;40.20;;;;;;4926607;29;20024;-82
2022/04/27 13:12:35;;;;;;;1.05;0.95;;;45.00;39.30;;;;;;4943339;28;20109;-84
2022/04/27 13:15:03;;;;;;;2.80;2.20;;;44.70;38.50;;;;;;4914218;29;20027;-83
2022/04/27 13:17:29;;;;;;;1.98;1.00;;;44.20;38.10;;;;;;4939394;28;20035;-82